Pagrindinis puslapis
METAR-TAF:

METAR-TAF

Oro uostai :

Praha, Čekija

platuma: 50-06N, ilguma: 014-15E, Aukštis: 365 m

Dabartinis oras

Ataskaita buvo paskelbta 34 minutes, ne 10:00 UTC
Vėjas 3 kt iš Vakarų/Šiaurės Vakarų, svyruoja nuo Vakarų ir Šiaurės
Temperatūra 13°C
Drėgmė 47%
Slėgis 1029 hPa
Matomumas 10 km arba daugiau
Išsisklaidę debesys ne aukštis 4600 ft

METAR: LKPR 201000Z 30003KT 260V350 9999 SCT046 13/02 Q1029 NOSIG

Laikas: 12:34 (10:34 UTC)

Prognozė

Ataskaita buvo paskelbta 5 valandos ir 34 minutes, ne 05:00 UTC
Prognozė galioja nuo 20 metu 06 UTC su 21 metu 12 UTC
Vėjas 6 kt iš Pietvakarių
Matomumas 10 km arba daugiau
nėra debesų žemiau 1500 m ir nėra kamuolinių lietaus debesų
Tapsmas
nuo 20 metu 07 UTC su 20 metu 09 UTC
Vėjas 5 kt iš Šiaurės Vakarų
Tapsmas
nuo 20 metu 17 UTC su 20 metu 19 UTC
Vėjas 2 kt nuo kintamojo kryptimis
Tapsmas
nuo 21 metu 09 UTC su 21 metu 11 UTC
Vėjas 6 kt iš Pietryčių

TAF: LKPR 200500Z 2006/2112 23006KT CAVOK BECMG 2007/2009 32005KT BECMG 2017/2019 VRB02KT BECMG 2109/2111 14006KT

Orai ataskaitas ir orų prognozės (METAR, TAF).

turimą stotys yra geltonos ir raudonos taškus žemėlapyje.

Perkelti pele per norėdami pamatyti stoties vardą.

Tada spustelėkite, norėdami matyti oro stebėjimo ir prognozės.

Norėdami pakeisti žemėlapį: spustelėkite ant žalios mygtukų su juodo kryžiaus žemyn,; žalią mygtuką su brūkšneliu, jei norite nutolinti; arba žalių rodyklių gretimoms žemėlapius.


METAR-TAF: